地図

経路データ

SID SEASON NUMBER BASIN SUBBASIN NAME ISO_TIME NATURE LAT LON WMO_WIND WMO_PRES WMO_AGENCY TRACK_TYPE DIST2LAND LANDFALL IFLAG USA_AGENCY USA_ATCF_ID USA_LAT USA_LON USA_RECORD USA_STATUS USA_WIND USA_PRES USA_SSHS USA_R34_NE USA_R34_SE USA_R34_SW USA_R34_NW USA_R50_NE USA_R50_SE USA_R50_SW USA_R50_NW USA_R64_NE USA_R64_SE USA_R64_SW USA_R64_NW USA_POCI USA_ROCI USA_RMW USA_EYE TOKYO_LAT TOKYO_LON TOKYO_GRADE TOKYO_WIND TOKYO_PRES TOKYO_R50_DIR TOKYO_R50_LONG TOKYO_R50_SHORT TOKYO_R30_DIR TOKYO_R30_LONG TOKYO_R30_SHORT TOKYO_LAND CMA_LAT CMA_LON CMA_CAT CMA_WIND CMA_PRES HKO_LAT HKO_LON HKO_CAT HKO_WIND HKO_PRES NEWDELHI_LAT NEWDELHI_LON NEWDELHI_GRADE NEWDELHI_WIND NEWDELHI_PRES NEWDELHI_CI NEWDELHI_DP NEWDELHI_POCI REUNION_LAT REUNION_LON REUNION_TYPE REUNION_WIND REUNION_PRES REUNION_TNUM REUNION_CI REUNION_RMW REUNION_R34_NE REUNION_R34_SE REUNION_R34_SW REUNION_R34_NW REUNION_R50_NE REUNION_R50_SE REUNION_R50_SW REUNION_R50_NW REUNION_R64_NE REUNION_R64_SE REUNION_R64_SW REUNION_R64_NW BOM_LAT BOM_LON BOM_TYPE BOM_WIND BOM_PRES BOM_TNUM BOM_CI BOM_RMW BOM_R34_NE BOM_R34_SE BOM_R34_SW BOM_R34_NW BOM_R50_NE BOM_R50_SE BOM_R50_SW BOM_R50_NW BOM_R64_NE BOM_R64_SE BOM_R64_SW BOM_R64_NW BOM_ROCI BOM_POCI BOM_EYE BOM_POS_METHOD BOM_PRES_METHOD NADI_LAT NADI_LON NADI_CAT NADI_WIND NADI_PRES WELLINGTON_LAT WELLINGTON_LON WELLINGTON_WIND WELLINGTON_PRES DS824_LAT DS824_LON DS824_STAGE DS824_WIND DS824_PRES TD9636_LAT TD9636_LON TD9636_STAGE TD9636_WIND TD9636_PRES TD9635_LAT TD9635_LON TD9635_WIND TD9635_PRES TD9635_ROCI NEUMANN_LAT NEUMANN_LON NEUMANN_CLASS NEUMANN_WIND NEUMANN_PRES MLC_LAT MLC_LON MLC_CLASS MLC_WIND MLC_PRES USA_GUST BOM_GUST BOM_GUST_PER REUNION_GUST REUNION_GUST_PER USA_SEAHGT USA_SEARAD_NE USA_SEARAD_SE USA_SEARAD_SW USA_SEARAD_NW STORM_SPEED STORM_DIR
1961041S14119 1961 18 SI WA NOT_NAMED 1961-02-09 23:00:00 NR -14.0000 119.000 main 445 445 __________O___ -1 -14.0000 119.000 7 6 192
1961041S14119 1961 18 SI WA NOT_NAMED 1961-02-10 00:00:00 TS -14.1025 118.986 main 455 455 O________OP___ jtwc_sh SH181961 -14.1000 119.000 -1 -14.1000 119.000 TC -14.1051 118.972 7 6 195
1961041S14119 1961 18 SI WA NOT_NAMED 1961-02-10 03:00:00 TS -14.4049 118.889 main 473 460 P________PP___ SH181961 -14.3950 118.890 -1 -14.3950 118.890 TC -14.4181 118.889 7 6 196
1961041S14119 1961 18 SI WA NOT_NAMED 1961-02-10 06:00:00 TS -14.7094 118.804 main 460 441 O________OP___ jtwc_sh SH181961 -14.7000 118.800 -1 -14.7000 118.800 TC -14.7235 118.810 7 6 193
1961041S14119 1961 18 SI WA NOT_NAMED 1961-02-10 09:00:00 TS -15.0152 118.742 main 450 439 P________PP___ SH181961 -15.0150 118.742 -1 -15.0150 118.742 TC -15.0156 118.740 7 6 190
1961041S14119 1961 18 SI WA NOT_NAMED 1961-02-10 11:00:00 TS -15.2076 118.709 main 439 434 P________PO___ SH181961 -15.2114 118.714 -1 -15.2114 118.714 TC -15.2000 118.700 1 6 186
1961041S14119 1961 18 SI WA NOT_NAMED 1961-02-10 12:00:00 TS -15.2962 118.694 main 434 423 O________OP___ jtwc_sh SH181961 -15.3000 118.700 -1 -15.3000 118.700 TC -15.2886 118.682 1 5 189
1961041S14119 1961 18 SI WA NOT_NAMED 1961-02-10 15:00:00 TS -15.5180 118.670 main 423 419 P________PP___ SH181961 -15.5074 118.695 -1 -15.5074 118.695 TC -15.5392 118.621 1 4 195
1961041S14119 1961 18 SI WA NOT_NAMED 1961-02-10 18:00:00 TS -15.7225 118.571 main 423 423 O________OP___ jtwc_sh SH181961 -15.7000 118.600 -1 -15.7000 118.600 TC -15.7676 118.513 1 6 217
1961041S14119 1961 18 SI WA NOT_NAMED 1961-02-10 21:00:00 TS -15.9630 118.320 main 440 440 P________PP___ SH181961 -15.9574 118.325 -1 -15.9574 118.325 TC -15.9742 118.310 1 7 231
1961041S14119 1961 18 SI WA NOT_NAMED 1961-02-10 23:00:00 TS -16.1169 118.070 main 456 451 P________PO___ SH181961 -16.1254 118.055 -1 -16.1254 118.055 TC -16.1000 118.100 1 9 239
1961041S14119 1961 18 SI WA NOT_NAMED 1961-02-11 00:00:00 TS -16.1921 117.921 main 454 446 O________OP___ jtwc_sh SH181961 -16.2000 117.900 -1 -16.2000 117.900 TC -16.1763 117.962 1 10 247
1961041S14119 1961 18 SI WA NOT_NAMED 1961-02-11 03:00:00 TS -16.3800 117.413 main 451 448 P________PP___ SH181961 -16.3724 117.395 -1 -16.3724 117.395 TC -16.3951 117.449 1 11 253
1961041S14119 1961 18 SI WA NOT_NAMED 1961-02-11 06:00:00 TS -16.5247 116.810 main 457 439 O________OP___ jtwc_sh SH181961 -16.5000 116.800 -1 -16.5000 116.800 TC -16.5742 116.829 1 12 257
1961041S14119 1961 18 SI WA NOT_NAMED 1961-02-11 09:00:00 TS -16.6624 116.162 main 439 439 P________PP___ SH181961 -16.6524 116.165 -1 -16.6524 116.165 TC -16.6824 116.154 1 13 260
1961041S14119 1961 18 SI WA NOT_NAMED 1961-02-11 11:00:00 TS -16.7023 115.715 main 448 448 P________PO___ SH181961 -16.7035 115.722 -1 -16.7035 115.722 TC -16.7000 115.700 1 13 267
1961041S14119 1961 18 SI WA NOT_NAMED 1961-02-11 12:00:00 TS -16.6931 115.493 main 454 454 O________OP___ jtwc_sh SH181961 -16.7000 115.500 -1 -16.7000 115.500 TC -16.6792 115.480 1 13 281
1961041S14119 1961 18 SI WA NOT_NAMED 1961-02-11 15:00:00 TS -16.5392 114.831 main 500 500 P________PP___ SH181961 -16.5374 114.842 -1 -16.5374 114.842 TC -16.5428 114.807 1 13 287
1961041S14119 1961 18 SI WA NOT_NAMED 1961-02-11 18:00:00 TS -16.3129 114.184 main 548 548 O________OP___ jtwc_sh SH181961 -16.3000 114.200 -1 -16.3000 114.200 TC -16.3386 114.151 1 13 288
1961041S14119 1961 18 SI WA NOT_NAMED 1961-02-11 21:00:00 TS -16.1309 113.553 main 600 600 P________PP___ SH181961 -16.1350 113.555 -1 -16.1350 113.555 TC -16.1226 113.550 1 12 286
1961041S14119 1961 18 SI WA NOT_NAMED 1961-02-11 23:00:00 TS -16.0278 113.179 main 632 632 P________PO___ SH181961 -16.0417 113.169 -1 -16.0417 113.169 TC -16.0000 113.200 1 11 286
1961041S14119 1961 18 SI WA NOT_NAMED 1961-02-12 00:00:00 TS -15.9859 113.016 main 643 643 O________OP___ jtwc_sh SH181961 -16.0000 113.000 -1 -16.0000 113.000 TC -15.9576 113.049 1 8 286
1961041S14119 1961 18 SI WA NOT_NAMED 1961-02-12 03:00:00 TS -15.8698 112.619 main 676 676 P________PP___ SH181961 -15.8773 112.598 -1 -15.8773 112.598 TC -15.8547 112.662 1 7 286
1961041S14119 1961 18 SI WA NOT_NAMED 1961-02-12 06:00:00 TS -15.7978 112.316 main 703 703 O________OP___ jtwc_sh SH181961 -15.8000 112.300 -1 -15.8000 112.300 TC -15.7934 112.347 1 6 279
1961041S14119 1961 18 SI WA NOT_NAMED 1961-02-12 09:00:00 TS -15.7832 112.053 main 711 711 P________PP___ SH181961 -15.7849 112.043 -1 -15.7849 112.043 TC -15.7798 112.074 1 5 270
1961041S14119 1961 18 SI WA NOT_NAMED 1961-02-12 11:00:00 TS -15.7965 111.889 main 717 717 P________PO___ SH181961 -15.7947 111.884 -1 -15.7947 111.884 TC -15.8000 111.900 1 5 267
1961041S14119 1961 18 SI WA NOT_NAMED 1961-02-12 12:00:00 TS -15.7979 111.798 main 720 720 O________OP___ jtwc_sh SH181961 -15.8000 111.800 -1 -15.8000 111.800 TC -15.7936 111.795 1 6 275
1961041S14119 1961 18 SI WA NOT_NAMED 1961-02-12 15:00:00 TS -15.7659 111.497 main 731 731 P________PP___ SH181961 -15.7475 111.500 -1 -15.7475 111.500 TC -15.8027 111.490 1 6 267
1961041S14119 1961 18 SI WA NOT_NAMED 1961-02-12 18:00:00 TS -15.8287 111.202 main 743 731 O________OP___ jtwc_sh SH181961 -15.8000 111.200 -1 -15.8000 111.200 TC -15.8861 111.205 1 6 240
1961041S14119 1961 18 SI WA NOT_NAMED 1961-02-12 21:00:00 TS -16.0680 110.945 main 726 710 P________PP___ SH181961 -16.0600 110.942 -1 -16.0600 110.942 TC -16.0842 110.949 1 8 219
1961041S14119 1961 18 SI WA NOT_NAMED 1961-02-12 23:00:00 TS -16.3243 110.787 main 710 696 P________PO___ SH181961 -16.3364 110.781 -1 -16.3364 110.781 TC -16.3000 110.800 1 10 209
1961041S14119 1961 18 SI WA NOT_NAMED 1961-02-13 00:00:00 TS -16.4816 110.702 main 696 665 O________OP___ jtwc_sh SH181961 -16.5000 110.700 -1 -16.5000 110.700 TC -16.4449 110.705 1 12 207
1961041S14119 1961 18 SI WA NOT_NAMED 1961-02-13 03:00:00 TS -17.0338 110.415 main 665 623 P________PP___ SH181961 -17.0551 110.405 -1 -17.0551 110.405 TC -16.9913 110.433 1 13 201
1961041S14119 1961 18 SI WA NOT_NAMED 1961-02-13 06:00:00 TS -17.6831 110.210 main 615 572 O________OP___ jtwc_sh SH181961 -17.7000 110.200 -1 -17.7000 110.200 TC -17.6494 110.230 1 13 191
1961041S14119 1961 18 SI WA NOT_NAMED 1961-02-13 09:00:00 TS -18.3490 110.147 main 572 526 P________PP___ SH181961 -18.3498 110.145 -1 -18.3498 110.145 TC -18.3476 110.152 1 13 179
1961041S14119 1961 18 SI WA NOT_NAMED 1961-02-13 11:00:00 TS -18.7909 110.215 main 526 503 P________PO___ SH181961 -18.7863 110.222 -1 -18.7863 110.222 TC -18.8000 110.200 1 13 168
1961041S14119 1961 18 SI WA NOT_NAMED 1961-02-13 12:00:00 TS -19.0012 110.291 main 503 437 O________OP___ jtwc_sh SH181961 -19.0000 110.300 -1 -19.0000 110.300 TC -19.0035 110.273 1 14 153
1961041S14119 1961 18 SI WA NOT_NAMED 1961-02-13 15:00:00 TS -19.6206 110.669 main 428 355 P________PP___ SH181961 -19.6302 110.690 -1 -19.6302 110.690 TC -19.6015 110.629 1 15 145
1961041S14119 1961 18 SI WA NOT_NAMED 1961-02-13 18:00:00 TS -20.1894 111.173 main 347 282 O________OP___ jtwc_sh SH181961 -20.2000 111.200 -1 -20.2000 111.200 TC -20.1682 111.119 1 14 139
1961041S14119 1961 18 SI WA NOT_NAMED 1961-02-13 21:00:00 TS -20.6875 111.663 main 273 230 P________PP___ SH181961 -20.6875 111.665 -1 -20.6875 111.665 TC -20.6876 111.658 1 13 136
1961041S14119 1961 18 SI WA NOT_NAMED 1961-02-13 23:00:00 TS -20.9795 111.974 main 230 215 P________PO___ SH181961 -20.9693 111.962 -1 -20.9693 111.962 TC -21.0000 112.000 2 12 136
1961041S14119 1961 18 SI WA NOT_NAMED 1961-02-14 00:00:00 TS -21.1136 112.109 main 215 159 O________OP___ jtwc_sh SH181961 -21.1000 112.100 -1 -21.1000 112.100 TC -21.1407 112.127 2 10 137
1961041S14119 1961 18 SI WA NOT_NAMED 1961-02-14 03:00:00 TS -21.4826 112.472 main 159 117 P________PP___ SH181961 -21.4648 112.465 -1 -21.4648 112.465 TC -21.5181 112.484 2 10 137
1961041S14119 1961 18 SI WA NOT_NAMED 1961-02-14 06:00:00 TS -21.8175 112.807 main 117 75 O________OP___ jtwc_sh SH181961 -21.8000 112.800 -1 -21.8000 112.800 TC -21.8526 112.822 2 9 137
1961041S14119 1961 18 SI WA NOT_NAMED 1961-02-14 09:00:00 TS -22.1534 113.144 main 68 30 P________PP___ SH181961 -22.1423 113.135 -1 -22.1423 113.135 TC -22.1757 113.161 2 9 137
1961041S14119 1961 18 SI WA NOT_NAMED 1961-02-14 11:00:00 TS -22.3850 113.381 main 30 15 P________PO___ SH181961 -22.3775 113.372 -1 -22.3775 113.372 TC -22.4000 113.400 2 10 136
1961041S14119 1961 18 SI WA NOT_NAMED 1961-02-14 12:00:00 TS -22.5072 113.510 main 15 0 O________OP___ jtwc_sh SH181961 -22.5000 113.500 -1 -22.5000 113.500 TC -22.5180 113.525 2 11 135
1961041S14119 1961 18 SI WA NOT_NAMED 1961-02-14 15:00:00 TS -22.8927 113.927 main 0 0 P________PP___ SH181961 -22.8904 113.929 -1 -22.8904 113.929 TC -22.8950 113.924 2 11 135
1961041S14119 1961 18 SI WA NOT_NAMED 1961-02-14 18:00:00 TS -23.2989 114.371 main 0 0 O________OP___ jtwc_sh SH181961 -23.3000 114.400 -1 -23.3000 114.400 TC -23.2982 114.351 2 12 136
1961041S14119 1961 18 SI WA NOT_NAMED 1961-02-14 21:00:00 NR -23.7171 114.797 main 0 0 __________P___ SH181961 -1 TC -23.7171 114.797 2 12 136
1961041S14119 1961 18 SI WA NOT_NAMED 1961-02-14 23:00:00 NR -24.0000 115.100 main 0 __________O___ SH181961 -1 TC -24.0000 115.100 2 12 136

IBTrACS Databaseについて

本データベースは、米国NOAAが公開する1842年以降の世界の熱帯低気圧のベストトラックデータアーカイブInternational Best Track Archive for Climate Stewardship (IBTrACS)を、ウェブで閲覧しやすい形式に変換したものです。

最終更新日:2021-12-01